sensor_id;sensor_type;location;lat;lon;timestamp;P1;durP1;ratioP1;P2;durP2;ratioP2
83715;SDS011;73698;51.138;6.950;2023-12-04T00:01:21;17.92;;;8.25;;
83715;SDS011;73698;51.138;6.950;2023-12-04T00:03:46;19.45;;;8.40;;
83715;SDS011;73698;51.138;6.950;2023-12-04T00:06:12;16.70;;;7.47;;
83715;SDS011;73698;51.138;6.950;2023-12-04T00:08:38;18.70;;;7.70;;
83715;SDS011;73698;51.138;6.950;2023-12-04T00:11:04;24.13;;;8.85;;
83715;SDS011;73698;51.138;6.950;2023-12-04T00:13:30;18.20;;;9.85;;
83715;SDS011;73698;51.138;6.950;2023-12-04T00:15:55;20.75;;;8.45;;
83715;SDS011;73698;51.138;6.950;2023-12-04T00:18:22;20.13;;;8.35;;
83715;SDS011;73698;51.138;6.950;2023-12-04T00:20:47;13.80;;;6.47;;
83715;SDS011;73698;51.138;6.950;2023-12-04T00:23:13;19.35;;;7.10;;
83715;SDS011;73698;51.138;6.950;2023-12-04T00:25:38;23.48;;;9.15;;
83715;SDS011;73698;51.138;6.950;2023-12-04T00:28:04;16.50;;;7.90;;
83715;SDS011;73698;51.138;6.950;2023-12-04T00:30:29;16.52;;;6.68;;
83715;SDS011;73698;51.138;6.950;2023-12-04T00:32:55;16.88;;;7.70;;
83715;SDS011;73698;51.138;6.950;2023-12-04T00:35:20;19.05;;;8.07;;
83715;SDS011;73698;51.138;6.950;2023-12-04T00:37:46;16.08;;;7.18;;
83715;SDS011;73698;51.138;6.950;2023-12-04T00:40:11;20.15;;;7.05;;
83715;SDS011;73698;51.138;6.950;2023-12-04T00:42:37;16.83;;;7.00;;
83715;SDS011;73698;51.138;6.950;2023-12-04T00:45:02;20.40;;;8.27;;
83715;SDS011;73698;51.138;6.950;2023-12-04T00:47:30;17.23;;;7.75;;
83715;SDS011;73698;51.138;6.950;2023-12-04T00:49:56;15.38;;;7.95;;
83715;SDS011;73698;51.138;6.950;2023-12-04T00:52:21;17.92;;;8.07;;
83715;SDS011;73698;51.138;6.950;2023-12-04T00:54:46;14.65;;;7.43;;
83715;SDS011;73698;51.138;6.950;2023-12-04T00:57:12;17.33;;;6.82;;
83715;SDS011;73698;51.138;6.950;2023-12-04T00:59:37;17.63;;;6.97;;
83715;SDS011;73698;51.138;6.950;2023-12-04T01:02:03;18.77;;;7.00;;
83715;SDS011;73698;51.138;6.950;2023-12-04T01:04:30;16.95;;;6.45;;
83715;SDS011;73698;51.138;6.950;2023-12-04T01:06:56;16.98;;;7.20;;
83715;SDS011;73698;51.138;6.950;2023-12-04T01:09:21;14.45;;;6.18;;
83715;SDS011;73698;51.138;6.950;2023-12-04T01:11:50;16.33;;;6.72;;
83715;SDS011;73698;51.138;6.950;2023-12-04T01:14:19;14.82;;;7.07;;
83715;SDS011;73698;51.138;6.950;2023-12-04T01:16:45;14.93;;;6.05;;
83715;SDS011;73698;51.138;6.950;2023-12-04T01:19:10;16.63;;;6.90;;
83715;SDS011;73698;51.138;6.950;2023-12-04T01:21:36;18.58;;;8.23;;
83715;SDS011;73698;51.138;6.950;2023-12-04T01:24:02;10.43;;;5.35;;
83715;SDS011;73698;51.138;6.950;2023-12-04T01:26:28;16.08;;;6.85;;
83715;SDS011;73698;51.138;6.950;2023-12-04T01:28:55;15.80;;;7.00;;
83715;SDS011;73698;51.138;6.950;2023-12-04T01:31:20;15.82;;;6.05;;
83715;SDS011;73698;51.138;6.950;2023-12-04T01:33:46;11.73;;;6.05;;
83715;SDS011;73698;51.138;6.950;2023-12-04T01:36:12;14.85;;;6.43;;
83715;SDS011;73698;51.138;6.950;2023-12-04T01:38:38;16.55;;;7.00;;
83715;SDS011;73698;51.138;6.950;2023-12-04T01:41:03;13.25;;;6.72;;
83715;SDS011;73698;51.138;6.950;2023-12-04T01:43:29;15.95;;;6.18;;
83715;SDS011;73698;51.138;6.950;2023-12-04T01:45:55;12.63;;;6.47;;
83715;SDS011;73698;51.138;6.950;2023-12-04T01:48:21;16.13;;;7.25;;
83715;SDS011;73698;51.138;6.950;2023-12-04T01:50:47;13.13;;;6.35;;
83715;SDS011;73698;51.138;6.950;2023-12-04T01:53:13;13.10;;;5.82;;
83715;SDS011;73698;51.138;6.950;2023-12-04T01:55:38;16.55;;;7.25;;
83715;SDS011;73698;51.138;6.950;2023-12-04T01:58:07;14.60;;;7.25;;
83715;SDS011;73698;51.138;6.950;2023-12-04T02:00:34;14.93;;;6.22;;
83715;SDS011;73698;51.138;6.950;2023-12-04T02:03:00;12.43;;;5.55;;
83715;SDS011;73698;51.138;6.950;2023-12-04T02:05:26;14.07;;;6.40;;
83715;SDS011;73698;51.138;6.950;2023-12-04T02:07:55;12.18;;;5.50;;
83715;SDS011;73698;51.138;6.950;2023-12-04T02:10:22;13.57;;;6.20;;
83715;SDS011;73698;51.138;6.950;2023-12-04T02:12:50;12.20;;;5.80;;
83715;SDS011;73698;51.138;6.950;2023-12-04T02:15:15;14.02;;;6.18;;
83715;SDS011;73698;51.138;6.950;2023-12-04T02:17:42;15.30;;;7.32;;
83715;SDS011;73698;51.138;6.950;2023-12-04T02:20:12;13.43;;;5.38;;
83715;SDS011;73698;51.138;6.950;2023-12-04T02:22:39;12.88;;;5.57;;
83715;SDS011;73698;51.138;6.950;2023-12-04T02:25:05;12.68;;;6.05;;
83715;SDS011;73698;51.138;6.950;2023-12-04T02:27:47;13.80;;;6.25;;
83715;SDS011;73698;51.138;6.950;2023-12-04T02:30:16;11.65;;;5.68;;
83715;SDS011;73698;51.138;6.950;2023-12-04T02:32:45;10.40;;;5.32;;
83715;SDS011;73698;51.138;6.950;2023-12-04T02:35:12;15.85;;;7.75;;
83715;SDS011;73698;51.138;6.950;2023-12-04T02:37:40;14.15;;;5.57;;
83715;SDS011;73698;51.138;6.950;2023-12-04T02:40:06;14.85;;;6.43;;
83715;SDS011;73698;51.138;6.950;2023-12-04T02:42:32;16.08;;;6.75;;
83715;SDS011;73698;51.138;6.950;2023-12-04T02:44:58;12.50;;;5.78;;
83715;SDS011;73698;51.138;6.950;2023-12-04T02:47:23;18.52;;;7.22;;
83715;SDS011;73698;51.138;6.950;2023-12-04T02:49:49;14.65;;;6.07;;
83715;SDS011;73698;51.138;6.950;2023-12-04T02:52:15;10.63;;;5.90;;
83715;SDS011;73698;51.138;6.950;2023-12-04T02:54:40;13.60;;;6.50;;
83715;SDS011;73698;51.138;6.950;2023-12-04T02:57:06;14.68;;;6.20;;
83715;SDS011;73698;51.138;6.950;2023-12-04T02:59:33;13.73;;;5.95;;
83715;SDS011;73698;51.138;6.950;2023-12-04T03:01:58;10.63;;;5.43;;
83715;SDS011;73698;51.138;6.950;2023-12-04T03:04:26;13.90;;;6.18;;
83715;SDS011;73698;51.138;6.950;2023-12-04T03:06:53;12.80;;;6.20;;
83715;SDS011;73698;51.138;6.950;2023-12-04T03:09:18;12.02;;;5.38;;
83715;SDS011;73698;51.138;6.950;2023-12-04T03:11:43;11.75;;;5.85;;
83715;SDS011;73698;51.138;6.950;2023-12-04T03:14:09;14.52;;;6.63;;
83715;SDS011;73698;51.138;6.950;2023-12-04T03:16:34;10.77;;;6.25;;
83715;SDS011;73698;51.138;6.950;2023-12-04T03:18:59;14.95;;;6.03;;
83715;SDS011;73698;51.138;6.950;2023-12-04T03:21:25;10.77;;;5.72;;
83715;SDS011;73698;51.138;6.950;2023-12-04T03:23:50;12.57;;;5.00;;
83715;SDS011;73698;51.138;6.950;2023-12-04T03:26:17;13.63;;;7.25;;
83715;SDS011;73698;51.138;6.950;2023-12-04T03:28:43;16.35;;;6.78;;
83715;SDS011;73698;51.138;6.950;2023-12-04T03:31:09;12.93;;;5.45;;
83715;SDS011;73698;51.138;6.950;2023-12-04T03:33:35;17.50;;;6.10;;
83715;SDS011;73698;51.138;6.950;2023-12-04T03:36:00;11.32;;;5.93;;
83715;SDS011;73698;51.138;6.950;2023-12-04T03:38:26;13.15;;;5.38;;
83715;SDS011;73698;51.138;6.950;2023-12-04T03:40:51;14.32;;;5.55;;
83715;SDS011;73698;51.138;6.950;2023-12-04T03:43:18;13.13;;;5.93;;
83715;SDS011;73698;51.138;6.950;2023-12-04T03:45:44;12.27;;;6.40;;
83715;SDS011;73698;51.138;6.950;2023-12-04T03:48:09;12.45;;;5.47;;
83715;SDS011;73698;51.138;6.950;2023-12-04T03:50:35;10.68;;;6.15;;
83715;SDS011;73698;51.138;6.950;2023-12-04T03:53:00;16.10;;;6.80;;
83715;SDS011;73698;51.138;6.950;2023-12-04T03:55:26;13.20;;;6.03;;
83715;SDS011;73698;51.138;6.950;2023-12-04T03:57:52;10.07;;;5.75;;
83715;SDS011;73698;51.138;6.950;2023-12-04T04:00:19;11.27;;;4.80;;
83715;SDS011;73698;51.138;6.950;2023-12-04T04:02:44;13.40;;;5.07;;
83715;SDS011;73698;51.138;6.950;2023-12-04T04:05:10;10.05;;;5.18;;
83715;SDS011;73698;51.138;6.950;2023-12-04T04:07:35;12.18;;;5.38;;
83715;SDS011;73698;51.138;6.950;2023-12-04T04:10:01;12.77;;;5.75;;
83715;SDS011;73698;51.138;6.950;2023-12-04T04:12:29;8.00;;;4.40;;
83715;SDS011;73698;51.138;6.950;2023-12-04T04:14:54;13.20;;;5.20;;
83715;SDS011;73698;51.138;6.950;2023-12-04T04:17:20;10.70;;;5.78;;
83715;SDS011;73698;51.138;6.950;2023-12-04T04:19:45;9.50;;;5.13;;
83715;SDS011;73698;51.138;6.950;2023-12-04T04:22:10;8.18;;;5.22;;
83715;SDS011;73698;51.138;6.950;2023-12-04T04:24:37;7.32;;;4.65;;
83715;SDS011;73698;51.138;6.950;2023-12-04T04:27:03;8.75;;;4.78;;
83715;SDS011;73698;51.138;6.950;2023-12-04T04:29:29;9.45;;;4.63;;
83715;SDS011;73698;51.138;6.950;2023-12-04T04:31:55;14.45;;;6.30;;
83715;SDS011;73698;51.138;6.950;2023-12-04T04:34:21;13.93;;;5.82;;
83715;SDS011;73698;51.138;6.950;2023-12-04T04:36:47;11.15;;;4.90;;
83715;SDS011;73698;51.138;6.950;2023-12-04T04:39:13;14.18;;;5.90;;
83715;SDS011;73698;51.138;6.950;2023-12-04T04:41:39;13.85;;;6.05;;
83715;SDS011;73698;51.138;6.950;2023-12-04T04:44:05;10.85;;;5.70;;
83715;SDS011;73698;51.138;6.950;2023-12-04T04:46:31;12.15;;;5.50;;
83715;SDS011;73698;51.138;6.950;2023-12-04T04:49:01;11.00;;;5.53;;
83715;SDS011;73698;51.138;6.950;2023-12-04T04:51:27;14.45;;;5.90;;
83715;SDS011;73698;51.138;6.950;2023-12-04T04:53:53;13.77;;;5.63;;
83715;SDS011;73698;51.138;6.950;2023-12-04T04:56:19;14.18;;;6.38;;
83715;SDS011;73698;51.138;6.950;2023-12-04T04:58:44;12.57;;;5.55;;
83715;SDS011;73698;51.138;6.950;2023-12-04T05:01:09;13.85;;;6.13;;
83715;SDS011;73698;51.138;6.950;2023-12-04T05:03:35;16.70;;;7.00;;
83715;SDS011;73698;51.138;6.950;2023-12-04T05:06:00;13.52;;;6.20;;
83715;SDS011;73698;51.138;6.950;2023-12-04T05:08:26;10.95;;;5.72;;
83715;SDS011;73698;51.138;6.950;2023-12-04T05:10:51;11.32;;;5.65;;
83715;SDS011;73698;51.138;6.950;2023-12-04T05:13:18;13.93;;;6.25;;
83715;SDS011;73698;51.138;6.950;2023-12-04T05:15:43;14.68;;;6.68;;
83715;SDS011;73698;51.138;6.950;2023-12-04T05:18:10;15.45;;;5.47;;
83715;SDS011;73698;51.138;6.950;2023-12-04T05:20:36;15.63;;;6.47;;
83715;SDS011;73698;51.138;6.950;2023-12-04T05:23:01;13.80;;;5.20;;
83715;SDS011;73698;51.138;6.950;2023-12-04T05:25:26;15.65;;;6.25;;
83715;SDS011;73698;51.138;6.950;2023-12-04T05:27:52;10.60;;;5.68;;
83715;SDS011;73698;51.138;6.950;2023-12-04T05:30:18;13.50;;;6.55;;
83715;SDS011;73698;51.138;6.950;2023-12-04T05:32:43;11.73;;;6.47;;
83715;SDS011;73698;51.138;6.950;2023-12-04T05:35:09;11.98;;;6.57;;
83715;SDS011;73698;51.138;6.950;2023-12-04T05:37:34;12.82;;;6.18;;
83715;SDS011;73698;51.138;6.950;2023-12-04T05:40:00;14.55;;;6.03;;
83715;SDS011;73698;51.138;6.950;2023-12-04T05:42:25;16.42;;;7.70;;
83715;SDS011;73698;51.138;6.950;2023-12-04T05:44:51;11.75;;;5.95;;
83715;SDS011;73698;51.138;6.950;2023-12-04T05:47:20;16.85;;;6.47;;
83715;SDS011;73698;51.138;6.950;2023-12-04T05:49:46;14.32;;;7.15;;
83715;SDS011;73698;51.138;6.950;2023-12-04T05:52:11;14.98;;;8.48;;
83715;SDS011;73698;51.138;6.950;2023-12-04T05:54:37;15.40;;;7.10;;
83715;SDS011;73698;51.138;6.950;2023-12-04T05:57:02;17.15;;;6.82;;
83715;SDS011;73698;51.138;6.950;2023-12-04T05:59:29;15.90;;;6.90;;
83715;SDS011;73698;51.138;6.950;2023-12-04T06:01:54;13.25;;;6.88;;
83715;SDS011;73698;51.138;6.950;2023-12-04T06:04:21;18.58;;;7.38;;
83715;SDS011;73698;51.138;6.950;2023-12-04T06:06:46;16.80;;;7.43;;
83715;SDS011;73698;51.138;6.950;2023-12-04T06:09:11;12.85;;;7.03;;
83715;SDS011;73698;51.138;6.950;2023-12-04T06:11:37;14.25;;;6.45;;
83715;SDS011;73698;51.138;6.950;2023-12-04T06:14:02;19.15;;;7.22;;
83715;SDS011;73698;51.138;6.950;2023-12-04T06:16:28;14.48;;;7.68;;
83715;SDS011;73698;51.138;6.950;2023-12-04T06:18:53;14.43;;;7.07;;
83715;SDS011;73698;51.138;6.950;2023-12-04T06:21:20;16.60;;;7.53;;
83715;SDS011;73698;51.138;6.950;2023-12-04T06:23:45;14.63;;;7.00;;
83715;SDS011;73698;51.138;6.950;2023-12-04T06:26:11;14.55;;;7.28;;
83715;SDS011;73698;51.138;6.950;2023-12-04T06:28:37;13.02;;;6.05;;
83715;SDS011;73698;51.138;6.950;2023-12-04T06:31:03;14.48;;;7.68;;
83715;SDS011;73698;51.138;6.950;2023-12-04T06:33:29;13.85;;;7.43;;
83715;SDS011;73698;51.138;6.950;2023-12-04T06:35:56;15.00;;;7.15;;
83715;SDS011;73698;51.138;6.950;2023-12-04T06:38:24;15.55;;;7.47;;
83715;SDS011;73698;51.138;6.950;2023-12-04T06:40:50;15.60;;;7.97;;
83715;SDS011;73698;51.138;6.950;2023-12-04T06:43:16;13.57;;;6.55;;
83715;SDS011;73698;51.138;6.950;2023-12-04T06:45:44;15.95;;;7.75;;
83715;SDS011;73698;51.138;6.950;2023-12-04T06:48:10;16.42;;;7.00;;
83715;SDS011;73698;51.138;6.950;2023-12-04T06:50:38;12.77;;;5.70;;
83715;SDS011;73698;51.138;6.950;2023-12-04T06:53:05;12.57;;;6.65;;
83715;SDS011;73698;51.138;6.950;2023-12-04T06:55:30;12.35;;;6.03;;
83715;SDS011;73698;51.138;6.950;2023-12-04T06:57:57;12.85;;;6.15;;
83715;SDS011;73698;51.138;6.950;2023-12-04T07:00:22;12.55;;;6.38;;
83715;SDS011;73698;51.138;6.950;2023-12-04T07:02:49;13.68;;;6.03;;
83715;SDS011;73698;51.138;6.950;2023-12-04T07:05:15;9.77;;;5.70;;
83715;SDS011;73698;51.138;6.950;2023-12-04T07:07:43;11.88;;;6.00;;
83715;SDS011;73698;51.138;6.950;2023-12-04T07:10:09;15.95;;;6.07;;
83715;SDS011;73698;51.138;6.950;2023-12-04T07:12:34;13.18;;;6.35;;
83715;SDS011;73698;51.138;6.950;2023-12-04T07:14:59;14.05;;;7.55;;
83715;SDS011;73698;51.138;6.950;2023-12-04T07:17:25;13.13;;;6.45;;
83715;SDS011;73698;51.138;6.950;2023-12-04T07:19:50;10.82;;;5.50;;
83715;SDS011;73698;51.138;6.950;2023-12-04T07:22:16;13.60;;;6.55;;
83715;SDS011;73698;51.138;6.950;2023-12-04T07:24:41;13.20;;;6.47;;
83715;SDS011;73698;51.138;6.950;2023-12-04T07:27:07;13.35;;;5.80;;
83715;SDS011;73698;51.138;6.950;2023-12-04T07:29:35;10.60;;;5.95;;
83715;SDS011;73698;51.138;6.950;2023-12-04T07:32:03;13.32;;;6.10;;
83715;SDS011;73698;51.138;6.950;2023-12-04T07:34:29;13.32;;;6.25;;
83715;SDS011;73698;51.138;6.950;2023-12-04T07:36:55;14.02;;;6.75;;
83715;SDS011;73698;51.138;6.950;2023-12-04T07:39:20;11.10;;;5.35;;
83715;SDS011;73698;51.138;6.950;2023-12-04T07:41:47;11.85;;;5.03;;
83715;SDS011;73698;51.138;6.950;2023-12-04T07:44:12;11.68;;;5.88;;
83715;SDS011;73698;51.138;6.950;2023-12-04T07:46:41;14.65;;;6.53;;
83715;SDS011;73698;51.138;6.950;2023-12-04T07:49:06;12.77;;;5.88;;
83715;SDS011;73698;51.138;6.950;2023-12-04T07:51:31;13.70;;;5.78;;
83715;SDS011;73698;51.138;6.950;2023-12-04T07:53:57;12.45;;;5.53;;
83715;SDS011;73698;51.138;6.950;2023-12-04T07:56:23;10.88;;;5.88;;
83715;SDS011;73698;51.138;6.950;2023-12-04T07:58:49;12.35;;;5.43;;
83715;SDS011;73698;51.138;6.950;2023-12-04T08:01:16;12.32;;;5.55;;
83715;SDS011;73698;51.138;6.950;2023-12-04T08:03:41;14.40;;;7.10;;
83715;SDS011;73698;51.138;6.950;2023-12-04T08:06:06;15.88;;;5.80;;
83715;SDS011;73698;51.138;6.950;2023-12-04T08:08:32;16.80;;;5.95;;
83715;SDS011;73698;51.138;6.950;2023-12-04T08:10:57;14.10;;;5.60;;
83715;SDS011;73698;51.138;6.950;2023-12-04T08:13:23;12.15;;;5.32;;
83715;SDS011;73698;51.138;6.950;2023-12-04T08:15:48;14.73;;;5.60;;
83715;SDS011;73698;51.138;6.950;2023-12-04T08:18:13;12.48;;;5.75;;
83715;SDS011;73698;51.138;6.950;2023-12-04T08:20:39;9.32;;;4.60;;
83715;SDS011;73698;51.138;6.950;2023-12-04T08:23:04;9.38;;;4.95;;
83715;SDS011;73698;51.138;6.950;2023-12-04T08:25:31;9.82;;;5.78;;
83715;SDS011;73698;51.138;6.950;2023-12-04T08:27:58;9.75;;;4.85;;
83715;SDS011;73698;51.138;6.950;2023-12-04T08:30:25;9.93;;;4.88;;
83715;SDS011;73698;51.138;6.950;2023-12-04T08:32:52;11.40;;;5.47;;
83715;SDS011;73698;51.138;6.950;2023-12-04T08:35:17;9.32;;;5.03;;
83715;SDS011;73698;51.138;6.950;2023-12-04T08:37:42;8.80;;;4.20;;
83715;SDS011;73698;51.138;6.950;2023-12-04T08:40:08;10.32;;;4.43;;
83715;SDS011;73698;51.138;6.950;2023-12-04T08:42:35;10.25;;;4.90;;
83715;SDS011;73698;51.138;6.950;2023-12-04T08:45:00;6.88;;;4.25;;
83715;SDS011;73698;51.138;6.950;2023-12-04T08:47:26;11.18;;;4.95;;
83715;SDS011;73698;51.138;6.950;2023-12-04T08:49:51;6.72;;;4.05;;
83715;SDS011;73698;51.138;6.950;2023-12-04T08:52:17;7.97;;;3.63;;
83715;SDS011;73698;51.138;6.950;2023-12-04T08:54:42;7.40;;;4.10;;
83715;SDS011;73698;51.138;6.950;2023-12-04T08:57:09;8.98;;;4.45;;
83715;SDS011;73698;51.138;6.950;2023-12-04T08:59:35;9.75;;;4.40;;
83715;SDS011;73698;51.138;6.950;2023-12-04T09:02:00;8.25;;;4.20;;
83715;SDS011;73698;51.138;6.950;2023-12-04T09:04:30;9.27;;;4.45;;
83715;SDS011;73698;51.138;6.950;2023-12-04T09:06:57;8.35;;;4.90;;
83715;SDS011;73698;51.138;6.950;2023-12-04T09:09:24;11.30;;;5.60;;
83715;SDS011;73698;51.138;6.950;2023-12-04T09:11:50;8.60;;;4.85;;
83715;SDS011;73698;51.138;6.950;2023-12-04T09:14:15;7.80;;;4.15;;
83715;SDS011;73698;51.138;6.950;2023-12-04T09:16:41;10.60;;;4.10;;
83715;SDS011;73698;51.138;6.950;2023-12-04T09:19:06;10.68;;;4.40;;
83715;SDS011;73698;51.138;6.950;2023-12-04T09:21:32;9.25;;;5.25;;
83715;SDS011;73698;51.138;6.950;2023-12-04T09:23:57;10.88;;;4.60;;
83715;SDS011;73698;51.138;6.950;2023-12-04T09:26:23;9.07;;;4.70;;
83715;SDS011;73698;51.138;6.950;2023-12-04T09:28:49;9.07;;;4.50;;
83715;SDS011;73698;51.138;6.950;2023-12-04T09:31:14;7.50;;;4.25;;
83715;SDS011;73698;51.138;6.950;2023-12-04T09:33:40;9.10;;;4.30;;
83715;SDS011;73698;51.138;6.950;2023-12-04T09:36:05;9.15;;;4.88;;
83715;SDS011;73698;51.138;6.950;2023-12-04T09:38:31;8.95;;;4.57;;
83715;SDS011;73698;51.138;6.950;2023-12-04T09:40:58;10.07;;;4.53;;
83715;SDS011;73698;51.138;6.950;2023-12-04T09:43:27;6.33;;;3.70;;
83715;SDS011;73698;51.138;6.950;2023-12-04T09:45:56;8.95;;;4.72;;
83715;SDS011;73698;51.138;6.950;2023-12-04T09:48:26;6.05;;;3.85;;
83715;SDS011;73698;51.138;6.950;2023-12-04T09:50:53;5.70;;;2.92;;
83715;SDS011;73698;51.138;6.950;2023-12-04T09:53:20;7.75;;;3.95;;
83715;SDS011;73698;51.138;6.950;2023-12-04T09:55:49;9.05;;;4.35;;
83715;SDS011;73698;51.138;6.950;2023-12-04T09:58:15;10.48;;;4.53;;
83715;SDS011;73698;51.138;6.950;2023-12-04T10:00:44;8.02;;;4.85;;
83715;SDS011;73698;51.138;6.950;2023-12-04T10:03:10;8.70;;;3.78;;
83715;SDS011;73698;51.138;6.950;2023-12-04T10:05:37;7.53;;;4.43;;
83715;SDS011;73698;51.138;6.950;2023-12-04T10:08:02;6.97;;;4.20;;
83715;SDS011;73698;51.138;6.950;2023-12-04T10:10:28;10.90;;;4.72;;
83715;SDS011;73698;51.138;6.950;2023-12-04T10:12:54;10.43;;;4.45;;
83715;SDS011;73698;51.138;6.950;2023-12-04T10:15:19;9.18;;;4.57;;
83715;SDS011;73698;51.138;6.950;2023-12-04T10:17:44;9.82;;;4.60;;
83715;SDS011;73698;51.138;6.950;2023-12-04T10:20:11;11.55;;;4.90;;
83715;SDS011;73698;51.138;6.950;2023-12-04T10:22:53;7.85;;;3.80;;
83715;SDS011;73698;51.138;6.950;2023-12-04T10:25:27;12.43;;;5.40;;
83715;SDS011;73698;51.138;6.950;2023-12-04T10:28:06;8.77;;;5.07;;
83715;SDS011;73698;51.138;6.950;2023-12-04T10:30:33;11.77;;;4.90;;
83715;SDS011;73698;51.138;6.950;2023-12-04T10:33:01;9.90;;;4.32;;
83715;SDS011;73698;51.138;6.950;2023-12-04T10:35:34;10.23;;;4.45;;
83715;SDS011;73698;51.138;6.950;2023-12-04T10:38:07;8.80;;;4.70;;
83715;SDS011;73698;51.138;6.950;2023-12-04T10:40:34;9.35;;;4.93;;
83715;SDS011;73698;51.138;6.950;2023-12-04T10:43:11;9.20;;;4.75;;
83715;SDS011;73698;51.138;6.950;2023-12-04T10:45:49;12.50;;;5.03;;
83715;SDS011;73698;51.138;6.950;2023-12-04T10:48:15;9.73;;;4.78;;
83715;SDS011;73698;51.138;6.950;2023-12-04T10:50:43;9.73;;;5.32;;
83715;SDS011;73698;51.138;6.950;2023-12-04T10:53:12;9.93;;;4.72;;
83715;SDS011;73698;51.138;6.950;2023-12-04T10:55:38;9.13;;;5.38;;
83715;SDS011;73698;51.138;6.950;2023-12-04T10:58:05;11.27;;;5.47;;
83715;SDS011;73698;51.138;6.950;2023-12-04T11:00:32;6.60;;;3.70;;
83715;SDS011;73698;51.138;6.950;2023-12-04T11:03:19;9.27;;;4.38;;
83715;SDS011;73698;51.138;6.950;2023-12-04T11:05:51;10.43;;;5.45;;
83715;SDS011;73698;51.138;6.950;2023-12-04T11:08:20;9.95;;;4.68;;
83715;SDS011;73698;51.138;6.950;2023-12-04T11:13:23;9.52;;;3.97;;
83715;SDS011;73698;51.138;6.950;2023-12-04T11:15:58;11.55;;;5.88;;
83715;SDS011;73698;51.138;6.950;2023-12-04T11:18:27;10.48;;;4.70;;
83715;SDS011;73698;51.138;6.950;2023-12-04T11:20:56;12.88;;;5.10;;
83715;SDS011;73698;51.138;6.950;2023-12-04T11:23:25;11.63;;;5.70;;
83715;SDS011;73698;51.138;6.950;2023-12-04T11:25:50;10.20;;;5.60;;
83715;SDS011;73698;51.138;6.950;2023-12-04T11:28:18;14.15;;;6.43;;
83715;SDS011;73698;51.138;6.950;2023-12-04T11:30:44;12.48;;;5.93;;
83715;SDS011;73698;51.138;6.950;2023-12-04T11:33:10;10.88;;;5.03;;
83715;SDS011;73698;51.138;6.950;2023-12-04T11:35:37;11.82;;;6.20;;
83715;SDS011;73698;51.138;6.950;2023-12-04T11:38:07;13.30;;;5.43;;
83715;SDS011;73698;51.138;6.950;2023-12-04T11:40:34;15.43;;;5.88;;
83715;SDS011;73698;51.138;6.950;2023-12-04T11:43:04;15.00;;;5.68;;
83715;SDS011;73698;51.138;6.950;2023-12-04T11:45:47;10.82;;;6.20;;
83715;SDS011;73698;51.138;6.950;2023-12-04T11:48:13;12.68;;;5.53;;
83715;SDS011;73698;51.138;6.950;2023-12-04T11:50:39;13.10;;;5.90;;
83715;SDS011;73698;51.138;6.950;2023-12-04T11:53:05;12.18;;;6.32;;
83715;SDS011;73698;51.138;6.950;2023-12-04T11:55:31;9.90;;;5.45;;
83715;SDS011;73698;51.138;6.950;2023-12-04T11:58:00;13.55;;;5.97;;
83715;SDS011;73698;51.138;6.950;2023-12-04T12:00:34;12.75;;;6.38;;
83715;SDS011;73698;51.138;6.950;2023-12-04T12:03:02;17.40;;;6.70;;
83715;SDS011;73698;51.138;6.950;2023-12-04T12:05:35;14.15;;;5.85;;
83715;SDS011;73698;51.138;6.950;2023-12-04T12:08:06;12.73;;;6.53;;
83715;SDS011;73698;51.138;6.950;2023-12-04T12:10:33;11.85;;;5.88;;
83715;SDS011;73698;51.138;6.950;2023-12-04T12:12:59;9.07;;;5.50;;
83715;SDS011;73698;51.138;6.950;2023-12-04T12:15:27;14.35;;;6.13;;
83715;SDS011;73698;51.138;6.950;2023-12-04T12:17:52;14.40;;;6.55;;
83715;SDS011;73698;51.138;6.950;2023-12-04T12:20:18;14.55;;;6.57;;
83715;SDS011;73698;51.138;6.950;2023-12-04T12:22:46;12.80;;;6.07;;
83715;SDS011;73698;51.138;6.950;2023-12-04T12:25:13;12.35;;;6.63;;
83715;SDS011;73698;51.138;6.950;2023-12-04T12:27:39;14.32;;;7.28;;
83715;SDS011;73698;51.138;6.950;2023-12-04T12:30:05;13.98;;;6.88;;
83715;SDS011;73698;51.138;6.950;2023-12-04T12:32:32;12.98;;;6.80;;
83715;SDS011;73698;51.138;6.950;2023-12-04T12:35:01;14.30;;;7.22;;
83715;SDS011;73698;51.138;6.950;2023-12-04T12:37:27;10.82;;;6.13;;
83715;SDS011;73698;51.138;6.950;2023-12-04T12:39:54;14.45;;;5.82;;
83715;SDS011;73698;51.138;6.950;2023-12-04T12:42:23;13.18;;;6.70;;
83715;SDS011;73698;51.138;6.950;2023-12-04T12:44:54;11.25;;;6.57;;
83715;SDS011;73698;51.138;6.950;2023-12-04T12:47:21;16.02;;;6.68;;
83715;SDS011;73698;51.138;6.950;2023-12-04T12:49:48;13.60;;;5.82;;
83715;SDS011;73698;51.138;6.950;2023-12-04T12:52:14;11.80;;;5.03;;
83715;SDS011;73698;51.138;6.950;2023-12-04T12:54:41;15.23;;;7.10;;
83715;SDS011;73698;51.138;6.950;2023-12-04T12:57:07;13.27;;;5.70;;
83715;SDS011;73698;51.138;6.950;2023-12-04T12:59:33;18.45;;;7.32;;
83715;SDS011;73698;51.138;6.950;2023-12-04T13:01:59;14.32;;;6.60;;
83715;SDS011;73698;51.138;6.950;2023-12-04T13:04:25;12.60;;;6.18;;
83715;SDS011;73698;51.138;6.950;2023-12-04T13:06:52;12.18;;;6.38;;
83715;SDS011;73698;51.138;6.950;2023-12-04T13:09:19;15.48;;;6.68;;
83715;SDS011;73698;51.138;6.950;2023-12-04T13:11:45;13.77;;;6.07;;
83715;SDS011;73698;51.138;6.950;2023-12-04T13:14:11;11.52;;;6.28;;
83715;SDS011;73698;51.138;6.950;2023-12-04T13:16:38;11.70;;;5.45;;
83715;SDS011;73698;51.138;6.950;2023-12-04T13:19:04;15.32;;;6.32;;
83715;SDS011;73698;51.138;6.950;2023-12-04T13:21:30;11.50;;;6.00;;
83715;SDS011;73698;51.138;6.950;2023-12-04T13:23:56;11.25;;;5.10;;
83715;SDS011;73698;51.138;6.950;2023-12-04T13:26:22;11.10;;;4.45;;
83715;SDS011;73698;51.138;6.950;2023-12-04T13:28:48;11.40;;;5.50;;
83715;SDS011;73698;51.138;6.950;2023-12-04T13:31:13;11.45;;;5.55;;
83715;SDS011;73698;51.138;6.950;2023-12-04T13:33:39;10.07;;;5.38;;
83715;SDS011;73698;51.138;6.950;2023-12-04T13:36:05;9.88;;;5.05;;
83715;SDS011;73698;51.138;6.950;2023-12-04T13:38:30;7.80;;;4.35;;
83715;SDS011;73698;51.138;6.950;2023-12-04T13:40:58;10.05;;;5.18;;
83715;SDS011;73698;51.138;6.950;2023-12-04T13:43:27;11.43;;;4.72;;
83715;SDS011;73698;51.138;6.950;2023-12-04T13:46:12;13.40;;;4.72;;
83715;SDS011;73698;51.138;6.950;2023-12-04T13:48:37;10.77;;;5.07;;
83715;SDS011;73698;51.138;6.950;2023-12-04T13:51:06;10.90;;;4.65;;
83715;SDS011;73698;51.138;6.950;2023-12-04T13:53:34;13.02;;;5.28;;
83715;SDS011;73698;51.138;6.950;2023-12-04T13:56:00;9.35;;;4.80;;
83715;SDS011;73698;51.138;6.950;2023-12-04T13:58:28;6.32;;;3.85;;
83715;SDS011;73698;51.138;6.950;2023-12-04T14:01:10;9.48;;;4.95;;
83715;SDS011;73698;51.138;6.950;2023-12-04T14:03:43;10.68;;;4.32;;
83715;SDS011;73698;51.138;6.950;2023-12-04T14:06:09;8.80;;;3.97;;
83715;SDS011;73698;51.138;6.950;2023-12-04T14:08:35;9.38;;;4.03;;
83715;SDS011;73698;51.138;6.950;2023-12-04T14:11:04;7.90;;;4.22;;
83715;SDS011;73698;51.138;6.950;2023-12-04T14:13:34;9.57;;;4.40;;
83715;SDS011;73698;51.138;6.950;2023-12-04T14:16:00;8.70;;;4.73;;
83715;SDS011;73698;51.138;6.950;2023-12-04T14:18:26;8.80;;;3.80;;
83715;SDS011;73698;51.138;6.950;2023-12-04T14:20:52;11.23;;;4.65;;
83715;SDS011;73698;51.138;6.950;2023-12-04T14:23:17;8.27;;;4.32;;
83715;SDS011;73698;51.138;6.950;2023-12-04T14:25:44;8.70;;;4.55;;
83715;SDS011;73698;51.138;6.950;2023-12-04T14:28:10;6.53;;;3.95;;
83715;SDS011;73698;51.138;6.950;2023-12-04T14:30:35;7.10;;;3.53;;
83715;SDS011;73698;51.138;6.950;2023-12-04T14:33:00;8.07;;;4.60;;
83715;SDS011;73698;51.138;6.950;2023-12-04T14:35:27;9.95;;;4.38;;
83715;SDS011;73698;51.138;6.950;2023-12-04T14:37:53;9.85;;;4.20;;